createdAt,value
2019-04-05T00:00:38.888Z,94106.00
2019-04-05T00:03:08.944Z,94109.00
2019-04-05T00:05:38.972Z,94110.00
2019-04-05T00:08:09.087Z,94099.00
2019-04-05T00:10:39.082Z,94101.00
2019-04-05T00:13:09.165Z,94101.00
2019-04-05T00:15:39.313Z,94101.00
2019-04-05T00:18:09.451Z,94110.00
2019-04-05T00:20:39.489Z,94105.00
2019-04-05T00:23:09.664Z,94104.00
2019-04-05T00:25:39.858Z,94119.00
2019-04-05T00:28:09.893Z,94136.00
2019-04-05T00:30:39.887Z,94120.00
2019-04-05T00:33:09.827Z,94125.00
2019-04-05T00:35:39.940Z,94117.00
2019-04-05T00:38:09.932Z,94134.00
2019-04-05T00:40:39.967Z,94127.00
2019-04-05T00:43:10.042Z,94127.00
2019-04-05T00:45:40.154Z,94130.00
2019-04-05T00:48:10.323Z,94134.00
2019-04-05T00:50:41.379Z,94128.00
2019-04-05T00:53:11.388Z,94130.00
2019-04-05T00:55:41.567Z,94134.00
2019-04-05T00:58:11.708Z,94132.00
2019-04-05T01:00:42.030Z,94125.00
2019-04-05T01:03:13.298Z,94109.00
2019-04-05T01:05:43.599Z,94114.00
2019-04-05T01:08:15.003Z,94117.00
2019-04-05T01:10:45.377Z,94124.00
2019-04-05T01:13:17.022Z,94130.00
2019-04-05T01:15:47.221Z,94129.00
2019-04-05T01:18:17.418Z,94115.00
2019-04-05T01:20:50.114Z,94117.00
2019-04-05T01:23:23.781Z,94113.00
2019-04-05T01:25:57.066Z,94127.00
2019-04-05T01:28:27.328Z,94117.00
2019-04-05T01:30:57.526Z,94137.00
2019-04-05T01:33:28.306Z,94123.00
2019-04-05T01:35:58.316Z,94131.00
2019-04-05T01:38:28.433Z,94132.00
2019-04-05T01:41:00.055Z,94119.00
2019-04-05T01:43:30.365Z,94118.00
2019-04-05T01:46:00.978Z,94121.00
2019-04-05T01:48:30.979Z,94129.00
2019-04-05T01:51:01.217Z,94134.00
2019-04-05T01:53:31.349Z,94132.00
2019-04-05T01:56:01.552Z,94120.00
2019-04-05T01:58:31.612Z,94134.00
2019-04-05T02:01:01.785Z,94130.00
2019-04-05T02:03:31.935Z,94140.00
2019-04-05T02:06:02.126Z,94136.00
2019-04-05T02:08:32.373Z,94136.00
2019-04-05T02:11:03.160Z,94144.00
2019-04-05T02:13:33.356Z,94130.00
2019-04-05T02:16:06.718Z,94141.00
2019-04-05T02:18:36.624Z,94144.00
2019-04-05T02:21:06.808Z,94143.00
2019-04-05T02:23:37.018Z,94149.00
2019-04-05T02:26:07.253Z,94136.00
2019-04-05T02:28:37.466Z,94140.00
2019-04-05T02:31:07.654Z,94145.00
2019-04-05T02:33:37.843Z,94140.00
2019-04-05T02:36:08.012Z,94126.00
2019-04-05T02:38:38.214Z,94137.00
2019-04-05T02:41:09.401Z,94140.00
2019-04-05T02:43:41.546Z,94141.00
2019-04-05T02:46:23.171Z,94148.00
2019-04-05T02:48:48.037Z,94144.00
2019-04-05T02:51:22.966Z,94143.00
2019-04-05T02:53:55.234Z,94141.00
2019-04-05T02:56:28.500Z,94154.00
2019-04-05T02:59:00.772Z,94152.00
2019-04-05T03:01:32.426Z,94169.00
2019-04-05T03:04:03.806Z,94152.00
2019-04-05T03:06:34.554Z,94152.00
2019-04-05T03:09:07.332Z,94135.00
2019-04-05T03:11:39.271Z,94135.00
2019-04-05T03:14:10.842Z,94144.00
2019-04-05T03:16:46.611Z,94138.00
2019-04-05T03:19:22.654Z,94150.00
2019-04-05T03:21:58.518Z,94154.00
2019-04-05T03:24:34.137Z,94143.00
2019-04-05T03:27:13.367Z,94152.00
2019-04-05T03:29:44.332Z,94143.00
2019-04-05T03:32:15.723Z,94140.00
2019-04-05T03:34:47.691Z,94145.00
2019-04-05T03:37:18.796Z,94142.00
2019-04-05T03:39:49.321Z,94150.00
2019-04-05T03:42:20.206Z,94150.00
2019-04-05T03:44:50.343Z,94154.00
2019-04-05T03:47:20.858Z,94157.00
2019-04-05T03:49:51.130Z,94147.00
2019-04-05T03:52:21.417Z,94166.00
2019-04-05T03:54:51.770Z,94156.00
2019-04-05T03:57:23.146Z,94144.00
2019-04-05T03:59:54.419Z,94144.00
2019-04-05T04:02:24.975Z,94153.00
2019-04-05T04:04:55.548Z,94143.00
2019-04-05T04:07:25.814Z,94149.00
2019-04-05T04:09:55.964Z,94156.00
2019-04-05T04:12:26.728Z,94155.00
2019-04-05T04:14:58.570Z,94146.00
2019-04-05T04:17:30.193Z,94145.00
2019-04-05T04:20:01.919Z,94146.00
2019-04-05T04:22:32.628Z,94155.00
2019-04-05T04:25:04.917Z,94153.00
2019-04-05T04:27:38.153Z,94147.00
2019-04-05T04:30:08.458Z,94145.00
2019-04-05T04:32:38.607Z,94149.00
2019-04-05T04:35:08.856Z,94155.00
2019-04-05T04:37:39.393Z,94160.00
2019-04-05T04:40:09.794Z,94158.00
2019-04-05T04:42:42.387Z,94154.00
2019-04-05T04:45:13.374Z,94166.00
2019-04-05T04:47:43.820Z,94165.00
2019-04-05T04:50:15.283Z,94165.00
2019-04-05T04:52:45.865Z,94168.00
2019-04-05T04:55:16.691Z,94164.00
2019-04-05T04:57:49.083Z,94173.00
2019-04-05T05:00:21.231Z,94179.00
2019-04-05T05:02:51.779Z,94181.00
2019-04-05T05:05:22.603Z,94171.00
2019-04-05T05:07:52.835Z,94180.00
2019-04-05T05:10:23.388Z,94176.00
2019-04-05T05:12:53.741Z,94172.00
2019-04-05T05:15:24.103Z,94178.00
2019-04-05T05:17:58.728Z,94190.00
2019-04-05T05:20:26.995Z,94177.00
2019-04-05T05:22:57.478Z,94178.00
2019-04-05T05:25:29.355Z,94182.00
2019-04-05T05:28:00.065Z,94173.00
2019-04-05T05:30:30.983Z,94182.00
2019-04-05T05:33:01.222Z,94170.00
2019-04-05T05:35:31.879Z,94188.00
2019-04-05T05:38:02.776Z,94190.00
2019-04-05T05:40:35.082Z,94202.00
2019-04-05T05:43:06.189Z,94189.00
2019-04-05T05:45:36.417Z,94191.00
2019-04-05T05:48:06.584Z,94201.00
2019-04-05T05:50:37.044Z,94192.00
2019-04-05T05:53:07.442Z,94189.00
2019-04-05T05:55:37.569Z,94187.00
2019-04-05T05:58:07.712Z,94188.00
2019-04-05T06:00:37.749Z,94188.00
2019-04-05T06:03:10.959Z,94184.00
2019-04-05T06:05:39.916Z,94183.00
2019-04-05T06:08:09.861Z,94187.00
2019-04-05T06:10:39.816Z,94191.00
2019-04-05T06:13:09.896Z,94186.00
2019-04-05T06:15:39.914Z,94182.00
2019-04-05T06:18:12.737Z,94172.00
2019-04-05T06:20:42.073Z,94181.00
2019-04-05T06:23:12.379Z,94166.00
2019-04-05T06:25:42.291Z,94167.00
2019-04-05T06:28:12.375Z,94166.00
2019-04-05T06:30:42.337Z,94166.00
2019-04-05T06:33:13.652Z,94172.00
2019-04-05T06:35:43.634Z,94173.00
2019-04-05T06:38:13.753Z,94176.00
2019-04-05T06:40:43.766Z,94178.00
2019-04-05T06:43:13.871Z,94170.00
2019-04-05T06:45:44.051Z,94182.00
2019-04-05T06:48:19.284Z,94169.00
2019-04-05T06:50:47.284Z,94180.00
2019-04-05T06:53:17.704Z,94167.00
2019-04-05T06:55:47.844Z,94182.00
2019-04-05T06:58:20.258Z,94182.00
2019-04-05T07:00:56.923Z,94186.00
2019-04-05T07:03:22.123Z,94184.00
2019-04-05T07:05:52.188Z,94184.00
2019-04-05T07:08:22.290Z,94186.00
2019-04-05T07:10:52.275Z,94185.00
2019-04-05T07:13:22.399Z,94190.00
2019-04-05T07:15:52.676Z,94183.00
2019-04-05T07:18:34.109Z,94178.00
2019-04-05T07:20:54.537Z,94166.00
2019-04-05T07:23:24.579Z,94188.00
2019-04-05T07:25:54.540Z,94171.00
2019-04-05T07:28:25.276Z,94177.00
2019-04-05T07:30:55.620Z,94186.00
2019-04-05T07:33:25.626Z,94197.00
2019-04-05T07:35:55.631Z,94194.00
2019-04-05T07:38:25.661Z,94199.00
2019-04-05T07:40:55.614Z,94202.00
2019-04-05T07:43:25.576Z,94204.00
2019-04-05T07:45:55.750Z,94198.00
2019-04-05T07:48:25.684Z,94202.00
2019-04-05T07:50:55.599Z,94202.00
2019-04-05T07:53:25.670Z,94195.00
2019-04-05T07:55:55.760Z,94198.00
2019-04-05T07:58:25.843Z,94197.00
2019-04-05T08:00:57.256Z,94198.00
2019-04-05T08:03:27.610Z,94193.00
2019-04-05T08:06:00.458Z,94190.00
2019-04-05T08:09:10.237Z,94199.00
2019-04-05T08:11:43.222Z,94195.00
2019-04-05T08:14:18.023Z,94203.00
2019-04-05T08:16:48.511Z,94205.00
2019-04-05T08:19:18.640Z,94199.00
2019-04-05T08:21:48.646Z,94205.00
2019-04-05T08:24:18.653Z,94208.00
2019-04-05T08:26:48.741Z,94207.00
2019-04-05T08:29:18.744Z,94199.00
2019-04-05T08:31:48.770Z,94201.00
2019-04-05T08:34:20.038Z,94200.00
2019-04-05T08:36:50.155Z,94209.00
2019-04-05T08:39:20.096Z,94210.00
2019-04-05T08:41:51.264Z,94212.00
2019-04-05T08:44:21.354Z,94210.00
2019-04-05T08:46:51.442Z,94206.00
2019-04-05T08:49:21.381Z,94210.00
2019-04-05T08:51:51.540Z,94211.00
2019-04-05T08:54:32.014Z,94213.00
2019-04-05T08:56:53.327Z,94202.00
2019-04-05T08:59:24.280Z,94195.00
2019-04-05T09:01:54.400Z,94191.00
2019-04-05T09:04:24.432Z,94199.00
2019-04-05T09:06:55.638Z,94177.00
2019-04-05T09:09:25.723Z,94171.00
2019-04-05T09:11:55.904Z,94188.00
2019-04-05T09:14:26.079Z,94183.00
2019-04-05T09:16:56.019Z,94178.00
2019-04-05T09:19:25.977Z,94189.00
2019-04-05T09:21:55.991Z,94192.00
2019-04-05T09:24:25.932Z,94186.00
2019-04-05T09:26:56.003Z,94184.00
2019-04-05T09:29:25.919Z,94195.00
2019-04-05T09:31:57.213Z,94180.00
2019-04-05T09:34:27.393Z,94193.00
2019-04-05T09:36:57.543Z,94192.00
2019-04-05T09:39:27.636Z,94192.00
2019-04-05T09:41:57.728Z,94195.00
2019-04-05T09:44:27.752Z,94192.00
2019-04-05T09:46:57.856Z,94177.00
2019-04-05T09:49:36.628Z,94181.00
2019-04-05T09:52:00.884Z,94201.00
2019-04-05T09:54:50.009Z,94190.00
2019-04-05T09:57:20.048Z,94199.00
2019-04-05T09:59:50.086Z,94192.00
2019-04-05T10:02:20.168Z,94193.00
2019-04-05T10:05:09.440Z,94200.00
2019-04-05T10:07:53.906Z,94196.00
2019-04-05T10:10:12.010Z,94187.00
2019-04-05T10:12:42.011Z,94190.00
2019-04-05T10:15:12.509Z,94183.00
2019-04-05T10:17:42.420Z,94172.00
2019-04-05T10:20:12.889Z,94185.00
2019-04-05T10:22:42.917Z,94176.00
2019-04-05T10:25:13.271Z,94178.00
2019-04-05T10:27:43.291Z,94184.00
2019-04-05T10:30:14.494Z,94183.00
2019-04-05T10:32:46.090Z,94180.00
2019-04-05T10:35:16.557Z,94182.00
2019-04-05T10:37:46.471Z,94181.00
2019-04-05T10:40:17.634Z,94166.00
2019-04-05T10:42:47.639Z,94170.00
2019-04-05T10:45:17.727Z,94159.00
2019-04-05T10:47:47.736Z,94157.00
2019-04-05T10:50:19.157Z,94154.00
2019-04-05T10:52:49.176Z,94155.00
2019-04-05T10:55:19.267Z,94162.00
2019-04-05T10:57:49.344Z,94147.00
2019-04-05T11:00:21.551Z,94161.00
2019-04-05T11:02:51.652Z,94153.00
2019-04-05T11:05:21.845Z,94147.00
2019-04-05T11:07:51.874Z,94147.00
2019-04-05T11:10:22.037Z,94149.00
2019-04-05T11:12:52.132Z,94142.00
2019-04-05T11:15:22.278Z,94142.00
2019-04-05T11:17:52.602Z,94141.00
2019-04-05T11:20:25.375Z,94135.00
2019-04-05T11:22:55.409Z,94141.00
2019-04-05T11:25:25.466Z,94140.00
2019-04-05T11:27:55.455Z,94148.00
2019-04-05T11:30:45.980Z,94131.00
2019-04-05T11:33:19.561Z,94139.00
2019-04-05T11:35:48.645Z,94143.00
2019-04-05T11:38:20.027Z,94146.00
2019-04-05T11:40:51.385Z,94141.00
2019-04-05T11:43:26.202Z,94144.00
2019-04-05T11:45:56.601Z,94136.00
2019-04-05T11:48:28.294Z,94135.00
2019-04-05T11:50:58.576Z,94138.00
2019-04-05T11:53:28.566Z,94139.00
2019-04-05T11:55:58.657Z,94128.00
2019-04-05T11:58:28.645Z,94131.00
2019-04-05T12:01:18.358Z,94122.00
2019-04-05T12:03:48.572Z,94131.00
2019-04-05T12:06:18.592Z,94121.00
2019-04-05T12:08:48.614Z,94127.00
2019-04-05T12:11:18.733Z,94124.00
2019-04-05T12:13:48.797Z,94121.00
2019-04-05T12:16:18.743Z,94123.00
2019-04-05T12:18:48.739Z,94116.00
2019-04-05T12:21:20.923Z,94110.00
2019-04-05T12:23:51.815Z,94111.00
2019-04-05T12:26:21.981Z,94106.00
2019-04-05T12:28:51.994Z,94106.00
2019-04-05T12:31:23.289Z,94106.00
2019-04-05T12:33:53.250Z,94102.00
2019-04-05T12:36:23.818Z,94107.00
2019-04-05T12:38:54.344Z,94097.00
2019-04-05T12:41:25.680Z,94108.00
2019-04-05T12:43:55.704Z,94093.00
2019-04-05T12:46:25.848Z,94101.00
2019-04-05T12:48:55.860Z,94094.00
2019-04-05T12:51:26.052Z,94096.00
2019-04-05T12:53:56.781Z,94088.00
2019-04-05T12:56:27.468Z,94095.00
2019-04-05T12:58:57.500Z,94091.00
2019-04-05T13:01:27.692Z,94093.00
2019-04-05T13:03:58.817Z,94087.00
2019-04-05T13:06:30.252Z,94077.00
2019-04-05T13:09:00.241Z,94079.00
2019-04-05T13:11:30.264Z,94086.00
2019-04-05T13:14:00.447Z,94076.00
2019-04-05T13:16:30.479Z,94072.00
2019-04-05T13:19:01.484Z,94073.00
2019-04-05T13:21:32.986Z,94061.00
2019-04-05T13:24:04.616Z,94069.00
2019-04-05T13:26:36.876Z,94072.00
2019-04-05T13:29:07.225Z,94065.00
2019-04-05T13:31:37.435Z,94065.00
2019-04-05T13:34:07.652Z,94063.00
2019-04-05T13:36:37.594Z,94054.00
2019-04-05T13:39:10.229Z,94060.00
2019-04-05T13:41:40.409Z,94061.00
2019-04-05T13:44:10.509Z,94056.00
2019-04-05T13:46:42.756Z,94065.00
2019-04-05T13:49:13.894Z,94058.00
2019-04-05T13:51:43.953Z,94053.00
2019-04-05T13:54:14.033Z,94057.00
2019-04-05T13:56:44.197Z,94048.00
2019-04-05T13:59:14.404Z,94043.00
2019-04-05T14:01:44.595Z,94049.00
2019-04-05T14:04:17.063Z,94046.00
2019-04-05T14:06:46.669Z,94051.00
2019-04-05T14:09:16.825Z,94040.00
2019-04-05T14:11:46.807Z,94037.00
2019-04-05T14:14:16.946Z,94049.00
2019-04-05T14:16:46.920Z,94043.00
2019-04-05T14:19:19.211Z,94043.00
2019-04-05T14:21:52.781Z,94054.00
2019-04-05T14:24:23.466Z,94047.00
2019-04-05T14:26:53.738Z,94048.00
2019-04-05T14:29:23.904Z,94048.00
2019-04-05T14:31:54.018Z,94044.00
2019-04-05T14:34:24.557Z,94046.00
2019-04-05T14:36:55.968Z,94023.00
2019-04-05T14:39:26.157Z,94023.00
2019-04-05T14:42:08.797Z,94035.00
2019-04-05T14:44:27.921Z,94035.00
2019-04-05T14:46:58.699Z,94039.00
2019-04-05T14:49:30.674Z,94024.00
2019-04-05T14:52:01.770Z,94019.00
2019-04-05T14:54:32.470Z,94025.00
2019-04-05T14:57:05.663Z,94020.00
2019-04-05T14:59:35.012Z,94023.00
2019-04-05T15:02:05.182Z,94021.00
2019-04-05T15:04:35.356Z,94019.00
2019-04-05T15:07:05.514Z,94027.00
2019-04-05T15:09:35.624Z,94023.00
2019-04-05T15:12:06.038Z,94023.00
2019-04-05T15:14:36.120Z,94028.00
2019-04-05T15:17:06.315Z,94021.00
2019-04-05T15:19:37.099Z,94018.00
2019-04-05T15:22:10.857Z,94011.00
2019-04-05T15:24:38.994Z,94007.00
2019-04-05T15:27:09.063Z,94024.00
2019-04-05T15:29:39.224Z,94020.00
2019-04-05T15:32:09.146Z,94026.00
2019-04-05T15:34:39.412Z,94018.00
2019-04-05T15:37:09.499Z,94021.00
2019-04-05T15:39:39.498Z,94023.00
2019-04-05T15:42:09.512Z,94021.00
2019-04-05T15:44:39.537Z,94022.00
2019-04-05T15:47:09.570Z,94015.00
2019-04-05T15:49:39.595Z,94014.00
2019-04-05T15:52:18.593Z,94025.00
2019-04-05T15:54:43.175Z,94019.00
2019-04-05T15:57:13.192Z,94015.00
2019-04-05T15:59:45.109Z,94008.00
2019-04-05T16:02:15.575Z,94017.00
2019-04-05T16:04:45.696Z,94012.00
2019-04-05T16:07:15.701Z,94017.00
2019-04-05T16:09:45.711Z,94022.00
2019-04-05T16:12:15.791Z,94011.00
2019-04-05T16:14:45.930Z,94014.00
2019-04-05T16:17:15.970Z,94024.00
2019-04-05T16:19:46.334Z,94014.00
2019-04-05T16:22:16.565Z,94009.00
2019-04-05T16:24:46.531Z,94009.00
2019-04-05T16:27:16.537Z,94013.00
2019-04-05T16:29:46.508Z,94010.00
2019-04-05T16:32:17.535Z,94009.00
2019-04-05T16:34:47.594Z,94006.00
2019-04-05T16:37:17.625Z,94017.00
2019-04-05T16:39:47.665Z,94014.00
2019-04-05T16:42:17.693Z,94018.00
2019-04-05T16:44:47.806Z,94018.00
2019-04-05T16:47:17.781Z,94017.00
2019-04-05T16:49:47.820Z,94029.00
2019-04-05T16:52:18.794Z,94018.00
2019-04-05T16:54:48.738Z,94028.00
2019-04-05T16:57:18.677Z,94026.00
2019-04-05T16:59:48.815Z,94020.00
2019-04-05T17:02:19.028Z,94022.00
2019-04-05T17:04:48.954Z,94029.00
2019-04-05T17:07:18.913Z,94023.00
2019-04-05T17:09:48.917Z,94010.00
2019-04-05T17:12:18.921Z,94011.00
2019-04-05T17:14:48.925Z,94015.00
2019-04-05T17:17:18.980Z,94014.00
2019-04-05T17:19:48.996Z,94005.00
2019-04-05T17:22:19.087Z,94014.00
2019-04-05T17:24:49.138Z,94008.00
2019-04-05T17:27:19.131Z,94016.00
2019-04-05T17:29:49.207Z,94024.00
2019-04-05T17:32:19.238Z,94017.00
2019-04-05T17:34:49.181Z,94022.00
2019-04-05T17:37:19.655Z,94028.00
2019-04-05T17:39:50.186Z,94036.00
2019-04-05T17:42:20.257Z,94034.00
2019-04-05T17:44:50.265Z,94031.00
2019-04-05T17:47:20.213Z,94040.00
2019-04-05T17:49:50.319Z,94042.00
2019-04-05T17:52:20.383Z,94041.00
2019-04-05T17:54:50.935Z,94055.00
2019-04-05T17:57:22.006Z,94049.00
2019-04-05T17:59:54.181Z,94055.00
2019-04-05T18:02:24.673Z,94048.00
2019-04-05T18:04:55.099Z,94050.00
2019-04-05T18:07:26.417Z,94054.00
2019-04-05T18:09:56.553Z,94053.00
2019-04-05T18:12:26.582Z,94053.00
2019-04-05T18:14:56.706Z,94051.00
2019-04-05T18:17:26.725Z,94051.00
2019-04-05T18:19:57.158Z,94055.00
2019-04-05T18:22:27.267Z,94057.00
2019-04-05T18:24:58.498Z,94063.00
2019-04-05T18:27:29.832Z,94066.00
2019-04-05T18:29:59.907Z,94066.00
2019-04-05T18:32:31.376Z,94066.00
2019-04-05T18:35:01.535Z,94069.00
2019-04-05T18:37:31.737Z,94071.00
2019-04-05T18:40:01.758Z,94074.00
2019-04-05T18:42:33.625Z,94076.00
2019-04-05T18:45:04.157Z,94078.00
2019-04-05T18:47:34.310Z,94088.00
2019-04-05T18:50:05.176Z,94089.00
2019-04-05T18:52:35.412Z,94099.00
2019-04-05T18:55:05.981Z,94091.00
2019-04-05T18:57:36.161Z,94100.00
2019-04-05T19:00:07.037Z,94089.00
2019-04-05T19:02:38.376Z,94102.00
2019-04-05T19:05:08.937Z,94101.00
2019-04-05T19:07:39.508Z,94109.00
2019-04-05T19:10:09.946Z,94096.00
2019-04-05T19:12:40.577Z,94113.00
2019-04-05T19:15:10.970Z,94120.00
2019-04-05T19:17:41.527Z,94114.00
2019-04-05T19:20:11.799Z,94111.00
2019-04-05T19:22:41.725Z,94111.00
2019-04-05T19:25:12.099Z,94105.00
2019-04-05T19:27:42.138Z,94102.00
2019-04-05T19:50:28.900Z,94112.00
2019-04-05T19:52:59.794Z,94111.00
2019-04-05T19:55:29.787Z,94130.00
2019-04-05T19:57:59.812Z,94127.00
2019-04-05T20:00:30.288Z,94139.00
2019-04-05T20:03:00.391Z,94141.00
2019-04-05T20:05:30.499Z,94152.00
2019-04-05T20:08:00.656Z,94137.00
2019-04-05T20:10:32.259Z,94130.00
2019-04-05T20:13:02.900Z,94135.00
2019-04-05T20:15:33.934Z,94139.00
2019-04-05T20:18:04.233Z,94133.00
2019-04-05T20:20:34.585Z,94141.00
2019-04-05T20:23:04.739Z,94139.00
2019-04-05T20:25:35.489Z,94142.00
2019-04-05T20:28:06.132Z,94146.00
2019-04-05T20:30:36.230Z,94146.00
2019-04-05T20:33:06.516Z,94134.00
2019-04-05T20:35:36.645Z,94142.00
2019-04-05T20:38:06.752Z,94137.00
2019-04-05T20:40:37.853Z,94144.00
2019-04-05T20:43:09.022Z,94151.00
2019-04-05T20:45:39.168Z,94157.00
2019-04-05T20:48:10.302Z,94151.00
2019-04-05T20:50:40.340Z,94156.00
2019-04-05T20:53:10.434Z,94153.00
2019-04-05T20:55:40.565Z,94161.00
2019-04-05T20:58:10.671Z,94153.00
2019-04-05T21:00:41.187Z,94161.00
2019-04-05T21:03:11.328Z,94156.00
2019-04-05T21:05:42.585Z,94169.00
2019-04-05T21:08:12.696Z,94160.00
2019-04-05T21:10:42.730Z,94146.00
2019-04-05T21:13:12.747Z,94151.00
2019-04-05T21:15:42.758Z,94146.00
2019-04-05T21:18:12.708Z,94143.00
2019-04-05T21:20:43.087Z,94151.00
2019-04-05T21:23:13.117Z,94150.00
2019-04-05T21:25:43.863Z,94155.00
2019-04-05T21:28:13.996Z,94149.00
2019-04-05T21:30:44.050Z,94158.00
2019-04-05T21:33:14.085Z,94149.00
2019-04-05T21:35:46.041Z,94159.00
2019-04-05T21:38:17.207Z,94156.00
2019-04-05T21:40:47.261Z,94160.00
2019-04-05T21:43:17.323Z,94159.00
2019-04-05T21:45:47.456Z,94155.00
2019-04-05T21:48:17.493Z,94150.00
2019-04-05T21:50:47.626Z,94156.00
2019-04-05T21:53:17.663Z,94153.00
2019-04-05T21:55:47.675Z,94153.00
2019-04-05T21:58:17.661Z,94154.00
2019-04-05T22:01:01.920Z,94159.00
2019-04-05T22:03:31.901Z,94165.00
2019-04-05T22:06:01.836Z,94171.00
2019-04-05T22:08:31.795Z,94159.00
2019-04-05T22:11:01.908Z,94169.00
2019-04-05T22:13:34.075Z,94165.00
2019-04-05T22:16:04.245Z,94176.00
2019-04-05T22:18:34.331Z,94165.00
2019-04-05T22:21:04.467Z,94169.00
2019-04-05T22:23:34.535Z,94164.00
2019-04-05T22:26:04.714Z,94162.00
2019-04-05T22:28:34.661Z,94171.00
2019-04-05T22:31:04.941Z,94171.00
2019-04-05T22:33:34.959Z,94171.00
2019-04-05T22:36:05.186Z,94171.00
2019-04-05T22:38:35.130Z,94165.00
2019-04-05T22:41:05.315Z,94166.00
2019-04-05T22:43:35.355Z,94183.00
2019-04-05T22:46:05.581Z,94159.00
2019-04-05T22:48:35.737Z,94167.00
2019-04-05T22:51:05.828Z,94176.00
2019-04-05T22:53:35.847Z,94180.00
2019-04-05T22:56:07.274Z,94178.00
2019-04-05T22:58:37.460Z,94189.00
2019-04-05T23:01:07.555Z,94183.00
2019-04-05T23:03:37.529Z,94179.00
2019-04-05T23:06:07.643Z,94180.00
2019-04-05T23:08:37.638Z,94191.00
2019-04-05T23:11:07.769Z,94190.00
2019-04-05T23:13:37.802Z,94184.00
2019-04-05T23:16:07.948Z,94190.00
2019-04-05T23:18:37.945Z,94182.00
2019-04-05T23:21:09.349Z,94187.00
2019-04-05T23:23:39.498Z,94192.00
2019-04-05T23:26:09.507Z,94186.00
2019-04-05T23:28:40.256Z,94181.00
2019-04-05T23:31:11.522Z,94192.00
2019-04-05T23:33:41.704Z,94182.00
2019-04-05T23:36:11.824Z,94199.00
2019-04-05T23:38:41.786Z,94181.00
2019-04-05T23:41:11.750Z,94191.00
2019-04-05T23:43:41.760Z,94187.00
2019-04-05T23:46:12.601Z,94194.00
2019-04-05T23:48:42.572Z,94178.00
2019-04-05T23:51:12.726Z,94189.00
2019-04-05T23:53:42.819Z,94179.00
2019-04-05T23:56:12.930Z,94189.00
2019-04-05T23:58:42.961Z,94192.00
